Update Update Update 4 juni: Nieuwe windmeter en zender besteld dankzij de Donatie's de eerste stap vernieuwing, mijn dank.


Bewolking Meer informatie Parkstad Weather Satellite


Neerslagradar Meer informatie Parkstad Rain Snow Radar


Onweersbuien Meer informatie Parkstad Lighntning


24/7 Weercamera Meer informatie Parkstad Weathercam


Natuurbrandrisico
CBI







Het weer levert geen direct gevaar op in Parkstad.    Er zijn geen waarschuwingen afgegeven voor Parkstad (045)

METAR rapporten vliegvelden

   
EHAM - Amsterdam
Gewijzigd: 22-06-2021 03:55
Grotendeels bewolkt  
Grotendeels bewolkt  
   Wind: NNO 18.5 km/h
Wind: NNO 18.5 km/h
Temperatuur: 13°C
Dauwpunt: 11°C
Vochtigheid: 88%
Barometer: 1016 hPa
Satelliet beelden: Grotendeels bewolkt
Zicht: meer dan 10 km
Bewolking: Licht bewolkt 762 m,
Grotendeels bewolkt 884 m
EHAM 220155Z 03010KT 360V070 9999 FEW025 BKN029 13/11 Q1016 NOSIG
EBAW - Antwerpen
Gewijzigd: 22-06-2021 03:50
Kleine regenbuien, Neerslag, Grotendeels bewolkt  
Kleine regenbuien, Neerslag, Grotendeels bewolkt  
   Wind: NNO 14.8 km/h
Wind: NNO 14.8 km/h
Temperatuur: 13°C
Dauwpunt: 11°C
Vochtigheid: 88%
Barometer: 1015 hPa
Satelliet beelden: Grotendeels bewolkt
Zicht: meer dan 10 km
Bewolking: Licht bewolkt 579 m,
Grotendeels bewolkt 732 m
EBAW 220150Z AUTO 03008KT 9999 -SHRA FEW019/// BKN024/// 13/11 Q1015
EGLL - London
Gewijzigd: 22-06-2021 03:50
Licht bewolkt  
Licht bewolkt  
   Wind: NNO 13 km/h
Wind: NNO 13 km/h
Temperatuur: 12°C
Dauwpunt: 8°C
Vochtigheid: 77%
Barometer: 1018 hPa
Satelliet beelden: Licht bewolkt
Zicht: meer dan 10 km
Bewolking: Licht bewolkt 1067 m
EGLL 220150Z AUTO 03007KT 340V070 9999 FEW035 12/08 Q1018
ELLX - Luxemburg
Gewijzigd: 22-06-2021 03:50
Helder  
Helder  
   Wind: NO 20.4 km/h
Wind: NO 20.4 km/h
Temperatuur: 13°C
Dauwpunt: 12°C
Vochtigheid: 94%
Barometer: 1011 hPa
Satelliet beelden: Helder
Zicht: meer dan 10 km
Bewolking: Helder
ELLX 220150Z AUTO 05011KT 9999 NCD 13/12 Q1011 NOSIG
EDDM - München
Gewijzigd: 22-06-2021 04:20
Helder  
Helder  
   Wind: ZW 7.4 km/h
Wind: ZW 7.4 km/h
Temperatuur: 15°C
Dauwpunt: 14°C
Vochtigheid: 94%
Barometer: 1012 hPa
Zicht: meer dan 10 km
Bewolking: Helder
EDDM 220220Z 22004KT CAVOK 15/14 Q1012 NOSIG
LFPO - Parijs
Gewijzigd: 22-06-2021 04:00
Helder  
Helder  
   Wind: varieert 3.7 km/h
Wind: varieert 3.7 km/h
Temperatuur: 15°C
Dauwpunt: 13°C
Vochtigheid: 88%
Barometer: 1010 hPa
Zicht: meer dan 10 km
Bewolking: Helder
LFPO 220200Z VRB02KT CAVOK 15/13 Q1010 NOSIG
EDDL - Düsseldorf
Gewijzigd: 22-06-2021 04:20
Gedeeltelijk bewolkt  
Gedeeltelijk bewolkt  
   Wind: Noorden 13 km/h
Wind: Noorden 13 km/h
Temperatuur: 13°C
Dauwpunt: 10°C
Vochtigheid: 82%
Barometer: 1014 hPa
Satelliet beelden: Gedeeltelijk bewolkt
Zicht: meer dan 10 km
Bewolking: Gedeeltelijk bewolkt 610 m
EDDL 220220Z 01007KT 340V040 9999 SCT020 13/10 Q1014 NOSIG
EDDK - Köln/Bonn Duitsland
Gewijzigd: 22-06-2021 04:20
Grotendeels bewolkt  
Grotendeels bewolkt  
   Wind: Noorden 13 km/h
Wind: Noorden 13 km/h
Temperatuur: 14°C
Dauwpunt: 11°C
Vochtigheid: 82%
Barometer: 1013 hPa
Satelliet beelden: Grotendeels bewolkt
Zicht: meer dan 10 km
Bewolking: Grotendeels bewolkt 579 m
EDDK 220220Z 36007KT 9999 BKN019 14/11 Q1013 NOSIG
TNCA - Oranjestad Aruba
Gewijzigd: 22-06-2021 04:00
Licht bewolkt  
Licht bewolkt  
   Wind: Oosten 31.5 km/h
Wind: Oosten 31.5 km/h
Temperatuur: 28°C
Gevoelstemperatuur: 32°C
Dauwpunt: 24°C
Vochtigheid: 79%
Barometer: 1015 hPa
Satelliet beelden: Licht bewolkt
Zicht: meer dan 10 km
Bewolking: Licht bewolkt 518 m
TNCA 220200Z 08017KT 9999 FEW017 28/24 Q1015 NOSIG
TNCC - Willemstad Curacao
Gewijzigd: 22-06-2021 04:00
Licht bewolkt  
Licht bewolkt  
   Wind: Oosten 22.2 km/h
Wind: Oosten 22.2 km/h
Temperatuur: 27°C
Gevoelstemperatuur: 30°C
Dauwpunt: 24°C
Vochtigheid: 84%
Barometer: 1015 hPa
Satelliet beelden: Licht bewolkt
Zicht: meer dan 10 km
Bewolking: Licht bewolkt 549 m
TNCC 220200Z 09012KT 9999 FEW018 27/24 Q1015 NOSIG
LEAL - La Nucia Spanje
Gewijzigd: 22-06-2021 04:00
Helder  
Helder  
   Wind: varieert 3.7 km/h
Wind: varieert 3.7 km/h
Temperatuur: 22°C
Dauwpunt: 8°C
Vochtigheid: 41%
Barometer: 1010 hPa
Zicht: meer dan 10 km
Bewolking: Helder
LEAL 220200Z VRB02KT CAVOK 22/08 Q1010 NOSIG
 

Script ontwikkeld door  Saratoga-weather.org Aangepast voor de template door  Weerstation Leuven

U vindt ons ook hier:

Het Weer Aktueel

WOW Nederland KNMI

Vereniging voor Weerkunde en Klimatologie

UK Met Office Weather Observation Website (WOW)

WeatherCloud

Weather Underground

Awekas

MeteoMap.Cloud

HAMweather, WeatherForYou, PWS Weather

Citizen Weather Observer Program (CWOP)

Apparatuur in gebruik:

Hardwareleverancier
Weerhuisje

Weerstation
Vantage Pro2+ UV

Weercomputer's
alix3d2 & wl330n

Weerprogramma's
Smartbedded

Satelliet NOAA's
WRX137 & KX137

Satelliet Eumetsat
Ayecka SR1 & Triax

Bliksemdetectie
Boltek StormTracker

Webleverancier
F-Service

Weerhuisje

Vantage Pro2+ UV

alix3d2 & wl330n

Smartbedded

WRX137 & KX137

Ayecka SR1 & Triax

Boltek StormTracker

F-Service